createdAt,value
2022-12-18T00:02:19.115Z,14.25
2022-12-18T00:04:46.004Z,15.45
2022-12-18T00:07:14.656Z,14.13
2022-12-18T00:09:41.183Z,13.30
2022-12-18T00:14:42.473Z,14.80
2022-12-18T00:17:09.639Z,13.75
2022-12-18T00:19:36.440Z,14.32
2022-12-18T00:22:02.951Z,17.50
2022-12-18T00:24:29.563Z,16.30
2022-12-18T00:26:56.189Z,16.30
2022-12-18T00:29:22.695Z,17.80
2022-12-18T00:31:49.313Z,16.20
2022-12-18T00:34:15.874Z,14.90
2022-12-18T00:36:42.506Z,17.80
2022-12-18T00:39:10.378Z,17.73
2022-12-18T00:41:55.553Z,15.13
2022-12-18T00:44:22.077Z,14.52
2022-12-18T00:46:48.945Z,12.88
2022-12-18T00:49:18.848Z,13.65
2022-12-18T00:54:13.382Z,13.02
2022-12-18T00:56:49.042Z,10.98
2022-12-18T00:59:16.789Z,12.85
2022-12-18T01:01:43.830Z,11.65
2022-12-18T01:04:10.477Z,12.40
2022-12-18T01:06:37.044Z,10.88
2022-12-18T01:09:03.731Z,11.75
2022-12-18T01:11:30.281Z,11.15
2022-12-18T01:13:56.958Z,11.30
2022-12-18T01:16:23.748Z,12.25
2022-12-18T01:18:52.964Z,10.95
2022-12-18T01:21:19.464Z,10.52
2022-12-18T01:23:46.354Z,10.23
2022-12-18T01:26:14.278Z,11.50
2022-12-18T01:28:41.186Z,10.45
2022-12-18T01:31:21.763Z,10.57
2022-12-18T01:33:48.370Z,10.45
2022-12-18T01:36:25.492Z,11.10
2022-12-18T01:38:52.392Z,10.65
2022-12-18T01:41:24.075Z,9.73
2022-12-18T01:43:58.377Z,9.82
2022-12-18T01:46:25.573Z,8.85
2022-12-18T01:48:56.522Z,9.35
2022-12-18T01:51:23.764Z,9.10
2022-12-18T01:53:50.355Z,9.63
2022-12-18T01:56:18.270Z,8.98
2022-12-18T01:58:52.699Z,8.05
2022-12-18T02:01:19.453Z,8.68
2022-12-18T02:03:46.197Z,8.82
2022-12-18T02:06:23.662Z,8.30
2022-12-18T02:09:09.082Z,8.30
2022-12-18T02:11:53.780Z,8.35
2022-12-18T02:14:34.173Z,9.13
2022-12-18T02:17:20.567Z,7.93
2022-12-18T02:19:56.806Z,8.48
2022-12-18T02:22:46.824Z,8.65
2022-12-18T02:25:31.885Z,7.57
2022-12-18T02:28:00.539Z,7.05
2022-12-18T02:30:28.297Z,7.45
2022-12-18T02:32:55.327Z,6.68
2022-12-18T02:35:24.893Z,6.57
2022-12-18T02:37:51.831Z,6.55
2022-12-18T02:40:20.499Z,6.05
2022-12-18T02:42:47.491Z,6.45
2022-12-18T02:45:14.001Z,6.20
2022-12-18T02:47:41.913Z,5.70
2022-12-18T02:50:08.320Z,5.75
2022-12-18T02:52:37.931Z,6.35
2022-12-18T02:55:22.741Z,5.60
2022-12-18T02:57:49.141Z,4.85
2022-12-18T03:00:19.667Z,6.88
2022-12-18T03:02:50.137Z,6.22
2022-12-18T03:05:29.234Z,6.43
2022-12-18T03:08:04.974Z,7.45
2022-12-18T03:10:33.125Z,7.35
2022-12-18T03:13:02.909Z,8.88
2022-12-18T03:15:32.986Z,7.95
2022-12-18T03:18:07.826Z,9.43
2022-12-18T03:20:36.014Z,9.27
2022-12-18T03:23:10.566Z,10.45
2022-12-18T03:25:40.167Z,11.10
2022-12-18T03:28:07.080Z,11.75
2022-12-18T03:30:34.963Z,11.27
2022-12-18T03:33:21.103Z,11.68
2022-12-18T03:35:47.724Z,13.07
2022-12-18T03:38:14.876Z,11.55
2022-12-18T03:40:47.131Z,12.30
2022-12-18T03:43:32.505Z,16.20
2022-12-18T03:46:06.513Z,13.10
2022-12-18T03:48:36.540Z,15.07
2022-12-18T03:51:11.896Z,14.70
2022-12-18T03:53:41.804Z,15.27
2022-12-18T03:56:10.087Z,15.43
2022-12-18T03:58:38.502Z,13.23
2022-12-18T04:01:13.332Z,14.63
2022-12-18T04:03:41.206Z,14.90
2022-12-18T04:06:08.535Z,14.27
2022-12-18T04:08:35.871Z,16.30
2022-12-18T04:11:03.229Z,15.38
2022-12-18T04:13:31.189Z,16.42
2022-12-18T04:15:57.701Z,16.00
2022-12-18T04:18:24.639Z,16.35
2022-12-18T04:20:51.310Z,17.30
2022-12-18T04:23:17.827Z,15.20
2022-12-18T04:25:44.312Z,18.13
2022-12-18T04:28:10.769Z,17.42
2022-12-18T04:30:39.670Z,18.58
2022-12-18T04:33:09.881Z,16.85
2022-12-18T04:35:36.369Z,16.73
2022-12-18T04:38:02.861Z,16.08
2022-12-18T04:40:29.458Z,17.77
2022-12-18T04:42:56.035Z,17.88
2022-12-18T04:45:22.615Z,18.80
2022-12-18T04:47:52.163Z,17.00
2022-12-18T04:50:18.704Z,16.80
2022-12-18T04:52:45.147Z,16.67
2022-12-18T04:55:11.685Z,18.05
2022-12-18T04:57:38.150Z,16.30
2022-12-18T05:00:07.146Z,17.88
2022-12-18T05:02:33.927Z,17.20
2022-12-18T05:05:07.827Z,16.70
2022-12-18T05:07:34.651Z,17.83
2022-12-18T05:10:01.181Z,18.50
2022-12-18T05:12:27.771Z,15.70
2022-12-18T05:14:54.309Z,17.98
2022-12-18T05:17:21.023Z,16.77
2022-12-18T05:19:47.606Z,17.52
2022-12-18T05:22:17.075Z,16.23
2022-12-18T05:24:43.572Z,17.88
2022-12-18T05:27:10.256Z,17.10
2022-12-18T05:29:36.734Z,19.92
2022-12-18T05:32:03.305Z,16.73
2022-12-18T05:34:29.794Z,18.70
2022-12-18T05:36:56.498Z,14.48
2022-12-18T05:39:22.975Z,15.10
2022-12-18T05:41:49.394Z,16.40
2022-12-18T05:44:16.034Z,15.07
2022-12-18T05:46:42.609Z,14.10
2022-12-18T05:49:09.054Z,16.35
2022-12-18T05:51:38.584Z,13.68
2022-12-18T05:54:06.050Z,13.55
2022-12-18T05:56:33.116Z,12.95
2022-12-18T05:58:59.765Z,13.30
2022-12-18T06:01:27.494Z,12.48
2022-12-18T06:03:54.261Z,12.30
2022-12-18T06:06:22.278Z,13.57
2022-12-18T06:08:49.141Z,11.85
2022-12-18T06:11:17.651Z,12.15
2022-12-18T06:13:44.147Z,11.45
2022-12-18T06:16:10.799Z,12.25
2022-12-18T06:18:37.406Z,11.32
2022-12-18T06:21:03.886Z,10.75
2022-12-18T06:23:30.525Z,10.57
2022-12-18T06:25:57.049Z,10.18
2022-12-18T06:28:23.899Z,10.43
2022-12-18T06:30:50.532Z,10.35
2022-12-18T06:33:17.381Z,9.88
2022-12-18T06:35:43.975Z,10.20
2022-12-18T06:38:13.634Z,9.82
2022-12-18T06:40:40.502Z,9.68
2022-12-18T06:43:07.140Z,8.82
2022-12-18T06:45:34.034Z,10.30
2022-12-18T06:48:01.239Z,8.35
2022-12-18T06:50:28.001Z,7.88
2022-12-18T06:52:54.558Z,8.27
2022-12-18T06:55:22.940Z,8.25
2022-12-18T06:57:49.534Z,7.68
2022-12-18T07:00:18.399Z,7.28
2022-12-18T07:02:45.121Z,7.97
2022-12-18T07:05:11.901Z,8.57
2022-12-18T07:07:38.560Z,6.50
2022-12-18T07:10:05.244Z,9.20
2022-12-18T07:12:34.742Z,7.60
2022-12-18T07:15:05.517Z,7.13
2022-12-18T07:17:32.104Z,7.40
2022-12-18T07:19:58.662Z,7.97
2022-12-18T07:22:26.280Z,6.90
2022-12-18T07:24:53.023Z,6.80
2022-12-18T07:27:19.627Z,6.43
2022-12-18T07:29:48.386Z,6.95
2022-12-18T07:32:14.926Z,6.47
2022-12-18T07:34:41.410Z,6.13
2022-12-18T07:37:08.040Z,5.53
2022-12-18T07:39:34.870Z,6.28
2022-12-18T07:42:21.338Z,5.68
2022-12-18T07:44:48.701Z,5.03
2022-12-18T07:47:15.248Z,5.65
2022-12-18T07:49:47.645Z,6.10
2022-12-18T07:52:14.174Z,6.65
2022-12-18T07:54:41.403Z,5.55
2022-12-18T07:57:16.534Z,5.82
2022-12-18T07:59:54.877Z,5.65
2022-12-18T08:02:22.900Z,5.90
2022-12-18T08:04:49.642Z,6.00
2022-12-18T08:07:16.192Z,6.40
2022-12-18T08:09:42.987Z,7.32
2022-12-18T08:12:09.504Z,5.20
2022-12-18T08:14:36.368Z,5.07
2022-12-18T08:17:03.134Z,5.53
2022-12-18T08:19:30.719Z,6.30
2022-12-18T08:21:58.104Z,5.43
2022-12-18T08:24:24.610Z,5.53
2022-12-18T08:27:20.840Z,5.60
2022-12-18T08:35:07.683Z,4.93
2022-12-18T08:46:25.268Z,4.10
2022-12-18T08:48:57.726Z,4.35
2022-12-18T08:51:26.995Z,4.70
2022-12-18T08:53:53.608Z,4.15
2022-12-18T08:56:20.344Z,4.85
2022-12-18T08:58:47.747Z,5.70
2022-12-18T09:01:29.322Z,6.10
2022-12-18T09:03:56.118Z,4.60
2022-12-18T09:06:26.569Z,4.35
2022-12-18T09:08:53.245Z,4.72
2022-12-18T09:11:21.409Z,3.83
2022-12-18T09:13:48.023Z,3.63
2022-12-18T09:16:14.665Z,3.45
2022-12-18T09:18:41.542Z,4.30
2022-12-18T09:21:09.521Z,3.80
2022-12-18T09:23:36.123Z,4.18
2022-12-18T09:26:02.640Z,4.18
2022-12-18T09:28:29.527Z,3.80
2022-12-18T09:30:56.001Z,4.18
2022-12-18T09:33:22.450Z,5.82
2022-12-18T09:35:49.181Z,5.53
2022-12-18T09:38:16.677Z,3.83
2022-12-18T09:40:48.358Z,4.18
2022-12-18T09:43:17.320Z,4.55
2022-12-18T09:45:45.733Z,4.00
2022-12-18T09:48:17.992Z,4.97
2022-12-18T09:50:45.274Z,4.82
2022-12-18T09:53:16.270Z,4.40
2022-12-18T09:55:45.798Z,4.78
2022-12-18T09:58:15.604Z,4.18
2022-12-18T10:00:44.697Z,5.25
2022-12-18T10:03:13.827Z,4.78
2022-12-18T10:05:49.673Z,4.75
2022-12-18T10:08:19.173Z,5.30
2022-12-18T10:10:58.457Z,5.43
2022-12-18T10:13:31.061Z,4.97
2022-12-18T10:15:57.687Z,3.92
2022-12-18T10:18:28.077Z,4.32
2022-12-18T10:20:56.549Z,4.28
2022-12-18T10:23:26.125Z,4.90
2022-12-18T10:26:09.099Z,4.13
2022-12-18T10:28:37.261Z,5.18
2022-12-18T10:31:06.026Z,5.43
2022-12-18T10:33:34.192Z,5.45
2022-12-18T10:36:04.024Z,4.68
2022-12-18T10:38:31.838Z,6.40
2022-12-18T10:40:59.880Z,6.07
2022-12-18T10:43:27.751Z,5.55
2022-12-18T10:46:02.315Z,6.82
2022-12-18T10:48:29.100Z,5.30
2022-12-18T10:51:12.567Z,6.50
2022-12-18T10:53:40.553Z,6.78
2022-12-18T10:56:07.642Z,8.18
2022-12-18T10:58:35.696Z,4.20
2022-12-18T11:01:02.053Z,5.05
2022-12-18T11:03:30.695Z,4.07
2022-12-18T11:06:25.293Z,4.28
2022-12-18T11:09:03.664Z,4.90
2022-12-18T11:11:32.874Z,5.10
2022-12-18T11:14:02.352Z,4.57
2022-12-18T11:16:30.060Z,3.72
2022-12-18T11:19:00.991Z,4.88
2022-12-18T11:23:58.963Z,4.75
2022-12-18T11:26:34.860Z,5.40
2022-12-18T11:29:11.980Z,4.97
2022-12-18T11:31:38.703Z,4.68
2022-12-18T11:34:29.165Z,4.55
2022-12-18T11:36:56.201Z,4.18
2022-12-18T11:39:28.926Z,5.05
2022-12-18T11:42:12.484Z,3.53
2022-12-18T11:44:48.170Z,4.38
2022-12-18T11:47:20.288Z,5.40
2022-12-18T11:49:50.936Z,3.80
2022-12-18T11:52:20.588Z,3.28
2022-12-18T11:54:49.041Z,3.78
2022-12-18T11:57:21.524Z,3.20
2022-12-18T12:00:02.411Z,3.22
2022-12-18T12:02:39.267Z,3.35
2022-12-18T12:05:21.198Z,3.60
2022-12-18T12:08:42.239Z,3.88
2022-12-18T12:11:07.222Z,3.75
2022-12-18T12:13:45.715Z,3.50
2022-12-18T12:16:35.134Z,5.18
2022-12-18T12:19:21.199Z,3.78
2022-12-18T12:21:51.225Z,3.20
2022-12-18T12:24:40.999Z,4.25
2022-12-18T12:27:10.222Z,3.85
2022-12-18T12:29:52.102Z,3.30
2022-12-18T12:32:18.473Z,4.28
2022-12-18T12:35:09.297Z,3.95
2022-12-18T12:37:49.986Z,3.58
2022-12-18T12:40:49.083Z,3.45
2022-12-18T12:43:27.033Z,3.50
2022-12-18T12:45:56.257Z,2.92
2022-12-18T12:48:25.492Z,3.85
2022-12-18T12:50:52.095Z,4.22
2022-12-18T12:53:24.578Z,4.10
2022-12-18T12:55:51.531Z,3.20
2022-12-18T12:58:27.584Z,3.83
2022-12-18T13:00:58.227Z,3.45
2022-12-18T13:03:44.008Z,4.47
2022-12-18T13:06:24.563Z,4.38
2022-12-18T13:08:58.780Z,3.85
2022-12-18T13:11:48.891Z,3.72
2022-12-18T13:14:26.060Z,4.05
2022-12-18T13:16:53.302Z,6.30
2022-12-18T13:19:24.204Z,5.18
2022-12-18T13:24:23.989Z,4.22
2022-12-18T13:26:51.151Z,4.32
2022-12-18T13:29:36.762Z,4.22
2022-12-18T13:32:03.364Z,4.63
2022-12-18T13:34:32.072Z,4.93
2022-12-18T13:37:19.860Z,3.63
2022-12-18T13:39:46.472Z,4.55
2022-12-18T13:42:33.886Z,3.40
2022-12-18T13:45:00.487Z,4.88
2022-12-18T13:47:32.226Z,3.25
2022-12-18T13:49:59.013Z,3.38
2022-12-18T13:52:26.575Z,3.95
2022-12-18T13:54:56.728Z,3.20
2022-12-18T13:57:31.295Z,3.95
2022-12-18T13:59:58.941Z,4.00
2022-12-18T14:02:26.746Z,3.63
2022-12-18T14:04:54.332Z,4.38
2022-12-18T14:07:23.114Z,4.05
2022-12-18T14:09:55.640Z,5.15
2022-12-18T14:12:49.742Z,4.07
2022-12-18T14:15:25.202Z,5.07
2022-12-18T14:18:10.549Z,4.20
2022-12-18T14:20:37.972Z,3.80
2022-12-18T14:23:04.410Z,3.40
2022-12-18T14:25:31.639Z,3.67
2022-12-18T14:28:02.086Z,3.47
2022-12-18T14:30:33.211Z,4.53
2022-12-18T14:33:08.908Z,4.05
2022-12-18T14:35:36.949Z,3.78
2022-12-18T14:38:32.808Z,4.15
2022-12-18T14:41:03.061Z,3.33
2022-12-18T14:43:30.951Z,3.80
2022-12-18T14:45:57.482Z,4.30
2022-12-18T14:48:33.144Z,5.00
2022-12-18T14:51:06.879Z,4.63
2022-12-18T14:53:33.370Z,3.85
2022-12-18T14:55:59.853Z,3.70
2022-12-18T14:58:26.591Z,4.15
2022-12-18T15:00:58.014Z,6.68
2022-12-18T15:03:24.622Z,4.07
2022-12-18T15:05:52.763Z,4.25
2022-12-18T15:08:30.151Z,3.97
2022-12-18T15:10:57.969Z,3.90
2022-12-18T15:13:25.669Z,5.47
2022-12-18T15:15:53.446Z,4.25
2022-12-18T15:18:22.162Z,3.88
2022-12-18T15:20:56.280Z,3.75
2022-12-18T15:23:27.568Z,3.72
2022-12-18T15:25:58.698Z,4.28
2022-12-18T15:28:30.085Z,3.63
2022-12-18T15:31:26.194Z,4.63
2022-12-18T15:33:53.813Z,4.03
2022-12-18T15:36:26.498Z,4.32
2022-12-18T15:38:55.125Z,4.70
2022-12-18T15:41:25.170Z,3.67
2022-12-18T15:43:52.590Z,4.15
2022-12-18T15:46:21.037Z,3.90
2022-12-18T15:48:48.803Z,5.00
2022-12-18T15:51:21.257Z,4.50
2022-12-18T15:53:48.887Z,5.00
2022-12-18T15:56:34.810Z,5.22
2022-12-18T15:59:02.173Z,5.18
2022-12-18T16:01:32.026Z,5.82
2022-12-18T16:03:58.581Z,5.38
2022-12-18T16:06:25.030Z,5.45
2022-12-18T16:08:51.560Z,4.72
2022-12-18T16:11:44.169Z,6.18
2022-12-18T16:14:37.328Z,6.57
2022-12-18T16:17:06.437Z,6.68
2022-12-18T16:19:33.166Z,6.68
2022-12-18T16:22:02.342Z,7.65
2022-12-18T16:24:29.742Z,9.77
2022-12-18T16:26:59.378Z,8.38
2022-12-18T16:29:28.408Z,8.65
2022-12-18T16:31:55.799Z,9.68
2022-12-18T16:34:26.046Z,9.85
2022-12-18T16:37:04.838Z,10.13
2022-12-18T16:39:33.093Z,11.23
2022-12-18T16:42:00.084Z,12.27
2022-12-18T16:44:28.496Z,11.80
2022-12-18T16:46:55.046Z,12.93
2022-12-18T16:49:22.486Z,14.50
2022-12-18T16:51:49.005Z,13.20
2022-12-18T16:54:19.614Z,14.75
2022-12-18T16:59:24.212Z,13.65
2022-12-18T17:01:50.916Z,16.20
2022-12-18T17:04:19.860Z,15.25
2022-12-18T17:06:52.089Z,17.00
2022-12-18T17:09:23.190Z,15.93
2022-12-18T17:11:49.715Z,13.93
2022-12-18T17:14:17.338Z,16.08
2022-12-18T17:16:43.899Z,17.48
2022-12-18T17:19:17.034Z,13.98
2022-12-18T17:21:45.005Z,14.40
2022-12-18T17:24:11.922Z,14.82
2022-12-18T17:26:39.975Z,17.05
2022-12-18T17:29:06.727Z,16.70
2022-12-18T17:31:36.353Z,16.25
2022-12-18T17:34:03.213Z,16.20
2022-12-18T17:36:33.299Z,17.27
2022-12-18T17:39:01.279Z,18.98
2022-12-18T17:41:30.580Z,17.67
2022-12-18T17:44:00.344Z,16.33
2022-12-18T17:46:28.371Z,15.63
2022-12-18T17:48:58.863Z,16.95
2022-12-18T17:51:25.777Z,17.58
2022-12-18T17:53:52.455Z,17.88
2022-12-18T17:56:20.100Z,17.27
2022-12-18T17:58:50.494Z,18.77
2022-12-18T18:01:18.683Z,19.42
2022-12-18T18:03:45.690Z,18.15
2022-12-18T18:06:15.324Z,18.42
2022-12-18T18:08:41.887Z,19.40
2022-12-18T18:11:29.529Z,19.70
2022-12-18T18:14:02.124Z,18.48
2022-12-18T18:16:34.027Z,20.13
2022-12-18T18:19:01.516Z,18.98
2022-12-18T18:21:28.568Z,18.88
2022-12-18T18:23:59.078Z,20.73
2022-12-18T18:26:33.167Z,19.67
2022-12-18T18:29:00.136Z,21.77
2022-12-18T18:31:29.744Z,22.48
2022-12-18T18:33:56.519Z,22.13
2022-12-18T18:36:23.256Z,21.45
2022-12-18T18:38:52.539Z,19.35
2022-12-18T18:41:23.744Z,21.25
2022-12-18T18:43:54.828Z,21.92
2022-12-18T18:46:23.987Z,20.00
2022-12-18T18:48:59.163Z,21.42
2022-12-18T18:51:34.522Z,21.10
2022-12-18T18:54:01.431Z,20.30
2022-12-18T18:56:56.444Z,21.08
2022-12-18T18:59:14.408Z,22.98
2022-12-18T19:01:41.119Z,20.63
2022-12-18T19:04:07.937Z,23.38
2022-12-18T19:06:36.832Z,18.95
2022-12-18T19:09:04.914Z,19.90
2022-12-18T19:11:51.530Z,22.15
2022-12-18T19:14:19.735Z,24.20
2022-12-18T19:16:46.392Z,24.85
2022-12-18T19:19:15.206Z,22.50
2022-12-18T19:21:41.612Z,24.35
2022-12-18T19:24:09.319Z,22.92
2022-12-18T19:26:37.736Z,22.83
2022-12-18T19:29:07.580Z,22.50
2022-12-18T19:31:36.502Z,24.10
2022-12-18T19:34:04.090Z,22.77
2022-12-18T19:36:31.102Z,22.77
2022-12-18T19:39:00.631Z,23.50
2022-12-18T19:41:37.680Z,23.30
2022-12-18T19:44:08.046Z,22.58
2022-12-18T19:49:07.295Z,23.08
2022-12-18T19:51:34.064Z,24.15
2022-12-18T19:54:01.792Z,25.73
2022-12-18T19:56:30.360Z,22.60
2022-12-18T19:58:56.880Z,25.25
2022-12-18T20:01:24.423Z,24.27
2022-12-18T20:03:52.496Z,23.17
2022-12-18T20:06:24.891Z,22.30
2022-12-18T20:08:51.777Z,25.20
2022-12-18T20:11:20.485Z,23.92
2022-12-18T20:13:46.956Z,23.60
2022-12-18T20:16:16.522Z,21.85
2022-12-18T20:18:43.457Z,24.23
2022-12-18T20:21:13.891Z,21.83
2022-12-18T20:23:41.019Z,25.13
2022-12-18T20:26:08.581Z,23.23
2022-12-18T20:28:35.685Z,22.27
2022-12-18T20:31:03.251Z,21.95
2022-12-18T20:33:30.142Z,25.80
2022-12-18T20:36:03.633Z,20.42
2022-12-18T20:38:30.568Z,19.10
2022-12-18T20:41:01.379Z,18.50
2022-12-18T20:43:31.367Z,18.20
2022-12-18T20:46:02.285Z,15.50
2022-12-18T20:50:59.301Z,14.55
2022-12-18T20:53:32.149Z,13.52
2022-12-18T20:55:58.661Z,13.23
2022-12-18T20:58:25.133Z,12.93
2022-12-18T21:01:02.233Z,12.05
2022-12-18T21:03:30.967Z,13.05
2022-12-18T21:05:57.433Z,11.43
2022-12-18T21:08:23.917Z,11.75
2022-12-18T21:10:50.641Z,12.15
2022-12-18T21:13:17.352Z,10.27
2022-12-18T21:15:45.077Z,8.75
2022-12-18T21:18:11.699Z,8.63
2022-12-18T21:20:38.287Z,6.78
2022-12-18T21:23:12.102Z,6.82
2022-12-18T21:25:43.411Z,7.63
2022-12-18T21:28:09.900Z,6.70
2022-12-18T21:30:36.829Z,6.65
2022-12-18T21:33:03.617Z,5.75
2022-12-18T21:35:32.051Z,6.38
2022-12-18T21:37:58.681Z,5.60
2022-12-18T21:40:25.318Z,6.07
2022-12-18T21:43:10.433Z,5.68
2022-12-18T21:45:40.513Z,5.43
2022-12-18T21:48:07.258Z,5.78
2022-12-18T21:50:33.730Z,5.95
2022-12-18T21:53:01.205Z,5.43
2022-12-18T21:55:27.639Z,6.25
2022-12-18T21:57:55.992Z,6.35
2022-12-18T22:00:22.552Z,5.32
2022-12-18T22:03:04.900Z,6.00
2022-12-18T22:05:35.798Z,6.45
2022-12-18T22:08:02.253Z,6.22
2022-12-18T22:10:29.024Z,5.82
2022-12-18T22:12:55.613Z,5.47
2022-12-18T22:18:07.145Z,5.75
2022-12-18T22:20:36.897Z,5.28
2022-12-18T22:23:06.154Z,5.35
2022-12-18T22:25:33.274Z,5.10
2022-12-18T22:28:25.558Z,5.63
2022-12-18T22:30:59.476Z,6.72
2022-12-18T22:33:26.510Z,4.80
2022-12-18T22:35:53.271Z,4.97
2022-12-18T22:38:19.773Z,5.68
2022-12-18T22:40:46.484Z,5.65
2022-12-18T22:43:12.942Z,4.88
2022-12-18T22:45:39.424Z,5.50
2022-12-18T22:48:06.318Z,5.80
2022-12-18T22:50:33.808Z,5.93
2022-12-18T22:53:01.317Z,5.05
2022-12-18T22:55:27.903Z,5.72
2022-12-18T22:57:54.339Z,5.55
2022-12-18T23:00:24.596Z,5.28
2022-12-18T23:02:56.052Z,4.75
2022-12-18T23:05:26.191Z,4.78
2022-12-18T23:07:52.741Z,4.45
2022-12-18T23:10:19.252Z,5.15
2022-12-18T23:12:45.823Z,4.63
2022-12-18T23:15:12.744Z,5.32
2022-12-18T23:17:42.465Z,5.20
2022-12-18T23:20:09.146Z,5.15
2022-12-18T23:22:35.612Z,5.40
2022-12-18T23:25:02.060Z,4.20
2022-12-18T23:27:28.631Z,5.20
2022-12-18T23:29:55.430Z,5.80
2022-12-18T23:32:23.904Z,4.25
2022-12-18T23:34:50.318Z,5.55
2022-12-18T23:37:35.269Z,5.43
2022-12-18T23:40:05.180Z,5.03
2022-12-18T23:42:31.583Z,5.25
2022-12-18T23:44:58.106Z,4.68
2022-12-18T23:47:26.429Z,4.85
2022-12-18T23:49:53.084Z,5.28
2022-12-18T23:52:19.823Z,5.43
2022-12-18T23:54:46.389Z,5.63
2022-12-18T23:57:12.946Z,6.07
2022-12-18T23:59:39.572Z,5.22
